createdAt,value
2018-08-12T00:01:43.326Z,97479.00
2018-08-12T00:04:13.873Z,97476.00
2018-08-12T00:06:44.525Z,97479.00
2018-08-12T00:09:15.533Z,97481.00
2018-08-12T00:11:45.837Z,97487.00
2018-08-12T00:14:16.724Z,97481.00
2018-08-12T00:16:47.167Z,97480.00
2018-08-12T00:19:17.669Z,97479.00
2018-08-12T00:21:48.131Z,97472.00
2018-08-12T00:24:18.554Z,97475.00
2018-08-12T00:26:49.064Z,97477.00
2018-08-12T00:29:19.538Z,97474.00
2018-08-12T00:31:49.915Z,97475.00
2018-08-12T00:34:20.380Z,97471.00
2018-08-12T00:36:50.822Z,97472.00
2018-08-12T00:39:21.254Z,97465.00
2018-08-12T00:41:51.784Z,97464.00
2018-08-12T00:44:22.032Z,97459.00
2018-08-12T00:46:52.246Z,97459.00
2018-08-12T00:49:22.530Z,97463.00
2018-08-12T00:51:53.212Z,97461.00
2018-08-12T00:54:23.500Z,97460.00
2018-08-12T00:56:54.080Z,97456.00
2018-08-12T00:59:24.449Z,97450.00
2018-08-12T01:01:54.774Z,97445.00
2018-08-12T01:04:25.375Z,97444.00
2018-08-12T01:06:56.030Z,97446.00
2018-08-12T01:09:26.628Z,97441.00
2018-08-12T01:11:57.242Z,97440.00
2018-08-12T01:14:27.699Z,97434.00
2018-08-12T01:16:58.379Z,97438.00
2018-08-12T01:19:28.842Z,97430.00
2018-08-12T01:21:59.153Z,97429.00
2018-08-12T01:24:29.662Z,97425.00
2018-08-12T01:27:00.139Z,97420.00
2018-08-12T01:29:30.730Z,97421.00
2018-08-12T01:32:01.208Z,97413.00
2018-08-12T01:34:31.735Z,97414.00
2018-08-12T01:37:02.138Z,97403.00
2018-08-12T01:39:32.684Z,97406.00
2018-08-12T01:42:03.108Z,97412.00
2018-08-12T01:44:33.516Z,97403.00
2018-08-12T01:47:03.944Z,97401.00
2018-08-12T01:49:34.375Z,97401.00
2018-08-12T01:52:04.956Z,97401.00
2018-08-12T01:54:35.497Z,97396.00
2018-08-12T01:57:06.050Z,97396.00
2018-08-12T01:59:36.759Z,97395.00
2018-08-12T02:02:07.104Z,97394.00
2018-08-12T02:04:37.458Z,97384.00
2018-08-12T02:07:07.766Z,97392.00
2018-08-12T02:09:38.455Z,97386.00
2018-08-12T02:12:08.979Z,97391.00
2018-08-12T02:14:39.346Z,97388.00
2018-08-12T02:17:10.121Z,97389.00
2018-08-12T02:19:40.704Z,97384.00
2018-08-12T02:22:11.075Z,97378.00
2018-08-12T02:24:41.411Z,97379.00
2018-08-12T02:27:11.793Z,97366.00
2018-08-12T02:29:42.189Z,97373.00
2018-08-12T02:32:12.450Z,97367.00
2018-08-12T02:34:43.819Z,97364.00
2018-08-12T02:37:14.431Z,97364.00
2018-08-12T02:39:44.993Z,97359.00
2018-08-12T02:42:15.506Z,97355.00
2018-08-12T02:44:46.067Z,97355.00
2018-08-12T02:47:16.751Z,97351.00
2018-08-12T02:49:47.710Z,97347.00
2018-08-12T02:52:18.143Z,97345.00
2018-08-12T02:54:48.628Z,97344.00
2018-08-12T02:57:19.123Z,97342.00
2018-08-12T02:59:49.514Z,97338.00
2018-08-12T03:02:19.996Z,97335.00
2018-08-12T03:04:50.560Z,97340.00
2018-08-12T03:07:20.974Z,97337.00
2018-08-12T03:09:51.362Z,97339.00
2018-08-12T03:12:22.117Z,97338.00
2018-08-12T03:14:52.606Z,97339.00
2018-08-12T03:17:23.216Z,97338.00
2018-08-12T03:19:53.606Z,97337.00
2018-08-12T03:22:24.222Z,97334.00
2018-08-12T03:24:54.630Z,97331.00
2018-08-12T03:27:24.910Z,97326.00
2018-08-12T03:29:55.570Z,97322.00
2018-08-12T03:32:26.228Z,97320.00
2018-08-12T03:34:56.608Z,97315.00
2018-08-12T03:37:27.073Z,97314.00
2018-08-12T03:39:57.578Z,97310.00
2018-08-12T03:42:28.056Z,97309.00
2018-08-12T03:44:58.506Z,97309.00
2018-08-12T03:47:29.020Z,97308.00
2018-08-12T03:49:59.597Z,97303.00
2018-08-12T03:52:30.047Z,97303.00
2018-08-12T03:55:00.419Z,97303.00
2018-08-12T03:57:30.683Z,97301.00
2018-08-12T04:00:01.108Z,97301.00
2018-08-12T04:02:31.409Z,97299.00
2018-08-12T04:05:02.151Z,97302.00
2018-08-12T04:07:32.563Z,97303.00
2018-08-12T04:10:03.248Z,97301.00
2018-08-12T04:12:33.650Z,97297.00
2018-08-12T04:15:04.114Z,97300.00
2018-08-12T04:17:34.621Z,97296.00
2018-08-12T04:20:05.214Z,97302.00
2018-08-12T04:22:35.489Z,97302.00
2018-08-12T04:25:06.300Z,97303.00
2018-08-12T04:27:36.732Z,97300.00
2018-08-12T04:30:09.066Z,97302.00
2018-08-12T04:32:39.597Z,97306.00
2018-08-12T04:35:10.166Z,97308.00
2018-08-12T04:37:40.471Z,97302.00
2018-08-12T04:40:10.947Z,97304.00
2018-08-12T04:42:41.462Z,97304.00
2018-08-12T04:45:11.798Z,97296.00
2018-08-12T04:47:42.206Z,97298.00
2018-08-12T04:50:12.541Z,97295.00
2018-08-12T04:52:42.952Z,97292.00
2018-08-12T04:55:13.375Z,97294.00
2018-08-12T04:57:43.729Z,97292.00
2018-08-12T05:00:14.322Z,97290.00
2018-08-12T05:02:45.658Z,97296.00
2018-08-12T05:05:16.347Z,97301.00
2018-08-12T05:07:47.202Z,97299.00
2018-08-12T05:10:18.002Z,97293.00
2018-08-12T05:12:48.554Z,97287.00
2018-08-12T05:15:18.766Z,97285.00
2018-08-12T05:17:49.155Z,97274.00
2018-08-12T05:20:19.538Z,97276.00
2018-08-12T05:22:49.894Z,97267.00
2018-08-12T05:25:20.414Z,97271.00
2018-08-12T05:27:50.863Z,97264.00
2018-08-12T05:30:21.421Z,97260.00
2018-08-12T05:32:51.794Z,97256.00
2018-08-12T05:35:22.336Z,97253.00
2018-08-12T05:37:52.494Z,97252.00
2018-08-12T05:40:22.826Z,97246.00
2018-08-12T05:42:53.310Z,97247.00
2018-08-12T05:45:23.758Z,97249.00
2018-08-12T05:47:54.247Z,97245.00
2018-08-12T05:50:24.694Z,97238.00
2018-08-12T05:52:55.103Z,97239.00
2018-08-12T05:55:25.560Z,97237.00
2018-08-12T05:57:56.183Z,97239.00
2018-08-12T06:00:26.506Z,97238.00
2018-08-12T06:02:56.958Z,97237.00
2018-08-12T06:05:27.486Z,97237.00
2018-08-12T06:07:57.854Z,97238.00
2018-08-12T06:10:28.296Z,97231.00
2018-08-12T06:12:58.802Z,97220.00
2018-08-12T06:15:29.453Z,97220.00
2018-08-12T06:18:00.012Z,97216.00
2018-08-12T06:20:30.599Z,97207.00
2018-08-12T06:23:00.894Z,97206.00
2018-08-12T06:25:31.821Z,97207.00
2018-08-12T06:28:02.187Z,97208.00
2018-08-12T06:30:32.718Z,97209.00
2018-08-12T06:33:03.174Z,97206.00
2018-08-12T06:35:33.596Z,97204.00
2018-08-12T06:38:03.953Z,97198.00
2018-08-12T06:40:34.454Z,97199.00
2018-08-12T06:43:04.779Z,97202.00
2018-08-12T06:45:35.339Z,97202.00
2018-08-12T06:48:06.020Z,97204.00
2018-08-12T06:50:36.494Z,97211.00
2018-08-12T06:53:06.846Z,97213.00
2018-08-12T06:55:37.475Z,97210.00
2018-08-12T06:58:08.010Z,97212.00
2018-08-12T07:00:38.399Z,97212.00
2018-08-12T07:03:08.955Z,97214.00
2018-08-12T07:05:39.295Z,97209.00
2018-08-12T07:08:09.714Z,97214.00
2018-08-12T07:10:40.246Z,97208.00
2018-08-12T07:13:10.734Z,97209.00
2018-08-12T07:15:41.323Z,97210.00
2018-08-12T07:18:12.179Z,97214.00
2018-08-12T07:20:42.438Z,97206.00
2018-08-12T07:23:12.802Z,97209.00
2018-08-12T07:25:43.176Z,97203.00
2018-08-12T07:28:13.460Z,97197.00
2018-08-12T07:30:44.031Z,97198.00
2018-08-12T07:33:14.538Z,97200.00
2018-08-12T07:35:44.940Z,97203.00
2018-08-12T07:38:15.495Z,97193.00
2018-08-12T07:40:46.155Z,97191.00
2018-08-12T07:43:16.633Z,97193.00
2018-08-12T07:45:47.187Z,97186.00
2018-08-12T07:48:17.968Z,97192.00
2018-08-12T07:50:48.456Z,97185.00
2018-08-12T07:53:18.871Z,97188.00
2018-08-12T07:55:49.783Z,97181.00
2018-08-12T07:58:20.543Z,97178.00
2018-08-12T08:00:51.078Z,97181.00
2018-08-12T08:03:21.671Z,97180.00
2018-08-12T08:05:52.076Z,97183.00
2018-08-12T08:08:22.585Z,97185.00
2018-08-12T08:10:53.263Z,97178.00
2018-08-12T08:13:23.685Z,97182.00
2018-08-12T08:15:54.146Z,97179.00
2018-08-12T08:18:24.624Z,97180.00
2018-08-12T08:20:55.035Z,97180.00
2018-08-12T08:23:25.623Z,97185.00
2018-08-12T08:25:55.958Z,97176.00
2018-08-12T08:28:26.237Z,97180.00
2018-08-12T08:30:56.942Z,97175.00
2018-08-12T08:33:27.386Z,97178.00
2018-08-12T08:35:57.825Z,97176.00
2018-08-12T08:38:28.278Z,97172.00
2018-08-12T08:40:58.815Z,97168.00
2018-08-12T08:43:29.310Z,97173.00
2018-08-12T08:45:59.737Z,97170.00
2018-08-12T08:48:30.642Z,97171.00
2018-08-12T08:51:01.026Z,97166.00
2018-08-12T08:53:31.485Z,97163.00
2018-08-12T08:56:02.060Z,97163.00
2018-08-12T08:58:34.219Z,97155.00
2018-08-12T09:01:04.563Z,97160.00
2018-08-12T09:03:35.102Z,97158.00
2018-08-12T09:06:05.455Z,97156.00
2018-08-12T09:08:35.999Z,97155.00
2018-08-12T09:11:06.406Z,97157.00
2018-08-12T09:13:36.852Z,97158.00
2018-08-12T09:16:07.339Z,97156.00
2018-08-12T09:18:37.781Z,97158.00
2018-08-12T09:21:08.250Z,97156.00
2018-08-12T09:23:38.679Z,97155.00
2018-08-12T09:26:09.327Z,97156.00
2018-08-12T09:28:39.638Z,97160.00
2018-08-12T09:31:10.163Z,97159.00
2018-08-12T09:33:40.583Z,97152.00
2018-08-12T09:36:11.015Z,97150.00
2018-08-12T09:38:41.362Z,97155.00
2018-08-12T09:41:11.830Z,97158.00
2018-08-12T09:43:42.298Z,97151.00
2018-08-12T09:46:12.664Z,97150.00
2018-08-12T09:48:43.157Z,97144.00
2018-08-12T09:51:13.537Z,97149.00
2018-08-12T09:53:44.173Z,97145.00
2018-08-12T09:56:14.460Z,97141.00
2018-08-12T09:58:45.056Z,97130.00
2018-08-12T10:01:15.454Z,97133.00
2018-08-12T10:03:45.879Z,97129.00
2018-08-12T10:06:16.269Z,97129.00
2018-08-12T10:08:46.680Z,97124.00
2018-08-12T10:11:17.269Z,97120.00
2018-08-12T10:13:47.678Z,97121.00
2018-08-12T10:16:18.379Z,97117.00
2018-08-12T10:18:49.041Z,97112.00
2018-08-12T10:21:19.573Z,97116.00
2018-08-12T10:23:50.155Z,97116.00
2018-08-12T10:26:20.553Z,97116.00
2018-08-12T10:28:51.296Z,97105.00
2018-08-12T10:31:21.826Z,97106.00
2018-08-12T10:33:52.236Z,97109.00
2018-08-12T10:36:22.637Z,97105.00
2018-08-12T10:38:53.366Z,97102.00
2018-08-12T10:41:23.926Z,97097.00
2018-08-12T10:43:54.174Z,97091.00
2018-08-12T10:46:24.539Z,97090.00
2018-08-12T10:48:55.126Z,97087.00
2018-08-12T10:51:25.633Z,97092.00
2018-08-12T10:53:56.177Z,97087.00
2018-08-12T10:56:26.562Z,97079.00
2018-08-12T10:58:57.071Z,97082.00
2018-08-12T11:01:27.470Z,97076.00
2018-08-12T11:03:57.968Z,97067.00
2018-08-12T11:06:28.554Z,97064.00
2018-08-12T11:08:59.058Z,97057.00
2018-08-12T11:11:29.538Z,97052.00
2018-08-12T11:13:59.962Z,97050.00
2018-08-12T11:16:30.253Z,97051.00
2018-08-12T11:19:00.678Z,97047.00
2018-08-12T11:21:31.166Z,97039.00
2018-08-12T11:24:01.442Z,97043.00
2018-08-12T11:26:31.890Z,97039.00
2018-08-12T11:29:02.381Z,97043.00
2018-08-12T11:31:32.863Z,97044.00
2018-08-12T11:34:03.285Z,97031.00
2018-08-12T11:36:33.551Z,97028.00
2018-08-12T11:39:03.976Z,97032.00
2018-08-12T11:41:34.229Z,97030.00
2018-08-12T11:44:04.532Z,97028.00
2018-08-12T11:46:34.981Z,97023.00
2018-08-12T11:49:05.399Z,97021.00
2018-08-12T11:51:35.886Z,97012.00
2018-08-12T11:54:06.378Z,97008.00
2018-08-12T11:56:36.874Z,97011.00
2018-08-12T11:59:07.123Z,97005.00
2018-08-12T12:01:37.572Z,97001.00
2018-08-12T12:04:08.131Z,97001.00
2018-08-12T12:06:38.552Z,96999.00
2018-08-12T12:09:10.671Z,96998.00
2018-08-12T12:11:41.363Z,96988.00
2018-08-12T12:14:11.802Z,96984.00
2018-08-12T12:16:42.327Z,96987.00
2018-08-12T12:19:12.871Z,96979.00
2018-08-12T12:21:43.374Z,96980.00
2018-08-12T12:24:14.090Z,96976.00
2018-08-12T12:26:44.490Z,96972.00
2018-08-12T12:29:14.846Z,96977.00
2018-08-12T12:31:45.357Z,96973.00
2018-08-12T12:34:15.899Z,96964.00
2018-08-12T12:36:46.474Z,96960.00
2018-08-12T12:39:16.769Z,96963.00
2018-08-12T12:41:47.234Z,96956.00
2018-08-12T12:44:17.613Z,96966.00
2018-08-12T12:46:48.158Z,96954.00
2018-08-12T12:49:18.367Z,96950.00
2018-08-12T12:51:48.702Z,96942.00
2018-08-12T12:54:19.195Z,96935.00
2018-08-12T12:56:49.822Z,96929.00
2018-08-12T12:59:20.446Z,96934.00
2018-08-12T13:01:50.734Z,96934.00
2018-08-12T13:04:21.215Z,96930.00
2018-08-12T13:06:51.708Z,96920.00
2018-08-12T13:09:22.210Z,96920.00
2018-08-12T13:11:52.738Z,96928.00
2018-08-12T13:14:23.228Z,96930.00
2018-08-12T13:16:53.426Z,96927.00
2018-08-12T13:19:23.739Z,96919.00
2018-08-12T13:21:54.202Z,96924.00
2018-08-12T13:24:24.648Z,96917.00
2018-08-12T13:26:55.031Z,96918.00
2018-08-12T13:29:25.282Z,96911.00
2018-08-12T13:31:55.750Z,96913.00
2018-08-12T13:34:26.199Z,96910.00
2018-08-12T13:36:56.602Z,96900.00
2018-08-12T13:39:27.128Z,96905.00
2018-08-12T13:41:57.590Z,96901.00
2018-08-12T13:44:28.162Z,96891.00
2018-08-12T13:46:58.474Z,96894.00
2018-08-12T13:49:28.802Z,96891.00
2018-08-12T13:51:59.233Z,96889.00
2018-08-12T13:54:29.580Z,96875.00
2018-08-12T13:57:00.075Z,96884.00
2018-08-12T13:59:30.592Z,96878.00
2018-08-12T14:02:00.936Z,96872.00
2018-08-12T14:04:31.195Z,96868.00
2018-08-12T14:07:01.647Z,96861.00
2018-08-12T14:09:32.112Z,96865.00
2018-08-12T14:12:02.628Z,96861.00
2018-08-12T14:14:33.184Z,96854.00
2018-08-12T14:17:03.302Z,96845.00
2018-08-12T14:19:33.703Z,96845.00
2018-08-12T14:22:04.070Z,96843.00
2018-08-12T14:24:34.260Z,96837.00
2018-08-12T14:27:04.738Z,96837.00
2018-08-12T14:29:35.028Z,96837.00
2018-08-12T14:32:05.357Z,96830.00
2018-08-12T14:34:35.714Z,96825.00
2018-08-12T14:37:06.144Z,96823.00
2018-08-12T14:39:36.606Z,96823.00
2018-08-12T14:42:07.218Z,96819.00
2018-08-12T14:44:37.769Z,96810.00
2018-08-12T14:47:08.110Z,96811.00
2018-08-12T14:49:38.763Z,96812.00
2018-08-12T14:52:10.186Z,96806.00
2018-08-12T14:54:40.760Z,96801.00
2018-08-12T14:57:11.250Z,96801.00
2018-08-12T14:59:41.690Z,96796.00
2018-08-12T15:02:12.129Z,96793.00
2018-08-12T15:04:42.403Z,96793.00
2018-08-12T15:07:12.942Z,96785.00
2018-08-12T15:09:43.234Z,96775.00
2018-08-12T15:12:13.826Z,96774.00
2018-08-12T15:14:44.246Z,96769.00
2018-08-12T15:17:14.702Z,96766.00
2018-08-12T15:19:45.126Z,96762.00
2018-08-12T15:22:15.483Z,96759.00
2018-08-12T15:24:45.791Z,96753.00
2018-08-12T15:27:16.473Z,96755.00
2018-08-12T15:29:46.794Z,96756.00
2018-08-12T15:32:17.200Z,96750.00
2018-08-12T15:34:47.568Z,96744.00
2018-08-12T15:37:17.990Z,96743.00
2018-08-12T15:39:48.329Z,96741.00
2018-08-12T15:42:18.761Z,96743.00
2018-08-12T15:44:49.079Z,96743.00
2018-08-12T15:47:19.447Z,96737.00
2018-08-12T15:49:50.066Z,96731.00
2018-08-12T15:52:21.201Z,96732.00
2018-08-12T15:54:51.745Z,96740.00
2018-08-12T15:57:22.039Z,96738.00
2018-08-12T15:59:52.579Z,96735.00
2018-08-12T16:02:23.001Z,96736.00
2018-08-12T16:04:53.558Z,96730.00
2018-08-12T16:07:24.034Z,96727.00
2018-08-12T16:09:54.573Z,96721.00
2018-08-12T16:12:25.138Z,96718.00
2018-08-12T16:14:55.416Z,96727.00
2018-08-12T16:17:25.818Z,96724.00
2018-08-12T16:19:56.266Z,96719.00
2018-08-12T16:22:26.545Z,96717.00
2018-08-12T16:24:56.878Z,96715.00
2018-08-12T16:27:27.354Z,96711.00
2018-08-12T16:29:57.838Z,96706.00
2018-08-12T16:32:28.168Z,96709.00
2018-08-12T16:34:58.524Z,96698.00
2018-08-12T16:37:28.959Z,96697.00
2018-08-12T16:39:59.566Z,96697.00
2018-08-12T16:42:29.958Z,96697.00
2018-08-12T16:45:00.278Z,96700.00
2018-08-12T16:47:30.579Z,96693.00
2018-08-12T16:50:00.903Z,96694.00
2018-08-12T16:52:30.949Z,96691.00
2018-08-12T16:55:01.512Z,96680.00
2018-08-12T16:57:31.866Z,96683.00
2018-08-12T17:00:02.067Z,96682.00
2018-08-12T17:02:32.767Z,96685.00
2018-08-12T17:05:02.963Z,96682.00
2018-08-12T17:07:33.363Z,96679.00
2018-08-12T17:10:03.750Z,96677.00
2018-08-12T17:12:34.184Z,96673.00
2018-08-12T17:15:05.380Z,96672.00
2018-08-12T17:17:35.894Z,96669.00
2018-08-12T17:20:08.219Z,96671.00
2018-08-12T17:22:38.554Z,96664.00
2018-08-12T17:25:08.910Z,96660.00
2018-08-12T17:27:39.233Z,96665.00
2018-08-12T17:30:11.634Z,96666.00
2018-08-12T17:32:42.329Z,96670.00
2018-08-12T17:35:12.655Z,96666.00
2018-08-12T17:37:44.249Z,96663.00
2018-08-12T17:40:15.226Z,96661.00
2018-08-12T17:42:45.744Z,96664.00
2018-08-12T17:45:16.247Z,96668.00
2018-08-12T17:47:46.622Z,96660.00
2018-08-12T17:50:17.832Z,96664.00
2018-08-12T17:52:48.594Z,96656.00
2018-08-12T17:55:19.154Z,96662.00
2018-08-12T17:57:49.774Z,96665.00
2018-08-12T18:00:20.130Z,96669.00
2018-08-12T18:02:50.762Z,96666.00
2018-08-12T18:05:21.258Z,96663.00
2018-08-12T18:07:51.573Z,96664.00
2018-08-12T18:10:21.946Z,96659.00
2018-08-12T18:12:52.707Z,96664.00
2018-08-12T18:15:23.390Z,96663.00
2018-08-12T18:17:54.206Z,96661.00
2018-08-12T18:20:24.717Z,96662.00
2018-08-12T18:22:55.130Z,96664.00
2018-08-12T18:25:25.596Z,96665.00
2018-08-12T18:27:56.134Z,96673.00
2018-08-12T18:30:26.477Z,96671.00
2018-08-12T18:32:56.884Z,96674.00
2018-08-12T18:35:27.342Z,96673.00
2018-08-12T18:37:57.695Z,96678.00
2018-08-12T18:40:28.157Z,96676.00
2018-08-12T18:42:58.572Z,96670.00
2018-08-12T18:45:29.041Z,96677.00
2018-08-12T18:47:59.598Z,96674.00
2018-08-12T18:50:30.458Z,96677.00
2018-08-12T18:53:00.863Z,96678.00
2018-08-12T18:55:31.521Z,96674.00
2018-08-12T18:58:02.050Z,96675.00
2018-08-12T19:00:32.623Z,96683.00
2018-08-12T19:03:03.132Z,96686.00
2018-08-12T19:05:33.451Z,96687.00
2018-08-12T19:08:04.082Z,96688.00
2018-08-12T19:10:34.626Z,96695.00
2018-08-12T19:13:05.067Z,96698.00
2018-08-12T19:15:35.412Z,96690.00
2018-08-12T19:18:06.263Z,96695.00
2018-08-12T19:20:36.526Z,96692.00
2018-08-12T19:23:07.237Z,96691.00
2018-08-12T19:25:37.527Z,96686.00
2018-08-12T19:28:08.025Z,96687.00
2018-08-12T19:30:38.657Z,96683.00
2018-08-12T19:33:09.139Z,96683.00
2018-08-12T19:35:39.575Z,96686.00
2018-08-12T19:38:10.305Z,96686.00
2018-08-12T19:40:40.663Z,96689.00
2018-08-12T19:43:11.083Z,96686.00
2018-08-12T19:45:41.711Z,96678.00
2018-08-12T19:48:12.069Z,96674.00
2018-08-12T19:50:42.698Z,96677.00
2018-08-12T19:53:13.267Z,96675.00
2018-08-12T19:55:43.743Z,96673.00
2018-08-12T19:58:14.177Z,96673.00
2018-08-12T20:00:44.628Z,96674.00
2018-08-12T20:03:15.019Z,96672.00
2018-08-12T20:05:45.510Z,96669.00
2018-08-12T20:08:15.822Z,96677.00
2018-08-12T20:10:46.152Z,96679.00
2018-08-12T20:13:16.791Z,96679.00
2018-08-12T20:15:47.306Z,96679.00
2018-08-12T20:18:17.816Z,96673.00
2018-08-12T20:20:48.178Z,96673.00
2018-08-12T20:23:18.856Z,96674.00
2018-08-12T20:25:49.258Z,96672.00
2018-08-12T20:28:19.742Z,96680.00
2018-08-12T20:30:50.394Z,96676.00
2018-08-12T20:33:20.990Z,96674.00
2018-08-12T20:35:51.511Z,96677.00
2018-08-12T20:38:23.048Z,96676.00
2018-08-12T20:40:53.442Z,96675.00
2018-08-12T20:43:23.740Z,96673.00
2018-08-12T20:45:54.103Z,96680.00
2018-08-12T20:48:24.571Z,96680.00
2018-08-12T20:50:55.070Z,96675.00
2018-08-12T20:53:25.900Z,96678.00
2018-08-12T20:55:56.267Z,96673.00
2018-08-12T20:58:26.614Z,96674.00
2018-08-12T21:00:57.198Z,96675.00
2018-08-12T21:03:27.519Z,96680.00
2018-08-12T21:05:57.903Z,96674.00
2018-08-12T21:08:28.316Z,96675.00
2018-08-12T21:10:58.729Z,96677.00
2018-08-12T21:13:29.250Z,96683.00
2018-08-12T21:15:59.875Z,96681.00
2018-08-12T21:18:30.630Z,96679.00
2018-08-12T21:21:01.159Z,96682.00
2018-08-12T21:23:31.428Z,96684.00
2018-08-12T21:26:02.039Z,96677.00
2018-08-12T21:28:32.807Z,96680.00
2018-08-12T21:31:03.222Z,96684.00
2018-08-12T21:33:34.021Z,96688.00
2018-08-12T21:36:04.475Z,96687.00
2018-08-12T21:38:34.965Z,96688.00
2018-08-12T21:41:05.196Z,96682.00
2018-08-12T21:43:35.597Z,96683.00
2018-08-12T21:46:06.032Z,96683.00
2018-08-12T21:48:36.565Z,96681.00
2018-08-12T21:51:07.020Z,96681.00
2018-08-12T21:53:37.468Z,96683.00
2018-08-12T21:56:07.863Z,96693.00
2018-08-12T21:58:38.280Z,96689.00
2018-08-12T22:01:08.960Z,96691.00
2018-08-12T22:03:39.459Z,96692.00
2018-08-12T22:06:10.129Z,96693.00
2018-08-12T22:08:40.742Z,96691.00
2018-08-12T22:11:11.264Z,96689.00
2018-08-12T22:13:41.815Z,96699.00
2018-08-12T22:16:12.131Z,96699.00
2018-08-12T22:18:42.542Z,96696.00
2018-08-12T22:21:13.020Z,96699.00
2018-08-12T22:23:43.549Z,96702.00
2018-08-12T22:26:14.087Z,96697.00
2018-08-12T22:28:44.502Z,96699.00
2018-08-12T22:31:15.011Z,96698.00
2018-08-12T22:33:45.266Z,96701.00
2018-08-12T22:36:15.658Z,96701.00
2018-08-12T22:38:46.039Z,96693.00
2018-08-12T22:41:16.429Z,96692.00
2018-08-12T22:43:47.023Z,96689.00
2018-08-12T22:46:17.510Z,96687.00
2018-08-12T22:48:47.851Z,96687.00
2018-08-12T22:51:18.391Z,96689.00
2018-08-12T22:53:48.674Z,96684.00
2018-08-12T22:56:19.176Z,96684.00
2018-08-12T22:58:49.778Z,96686.00
2018-08-12T23:01:20.691Z,96686.00
2018-08-12T23:03:51.098Z,96687.00
2018-08-12T23:06:21.753Z,96688.00
2018-08-12T23:08:52.291Z,96682.00
2018-08-12T23:11:22.760Z,96676.00
2018-08-12T23:13:53.107Z,96672.00
2018-08-12T23:16:39.898Z,96676.00
2018-08-12T23:19:10.399Z,96674.00
2018-08-12T23:21:40.931Z,96665.00
2018-08-12T23:24:11.340Z,96663.00
2018-08-12T23:26:41.895Z,96662.00
2018-08-12T23:29:12.238Z,96656.00
2018-08-12T23:31:43.054Z,96657.00
2018-08-12T23:34:13.633Z,96657.00
2018-08-12T23:36:44.226Z,96652.00
2018-08-12T23:39:14.567Z,96658.00
2018-08-12T23:41:45.086Z,96643.00
2018-08-12T23:44:15.411Z,96643.00
2018-08-12T23:46:45.779Z,96642.00
2018-08-12T23:49:16.300Z,96646.00
2018-08-12T23:51:46.649Z,96643.00
2018-08-12T23:54:17.122Z,96638.00
2018-08-12T23:56:47.482Z,96639.00
2018-08-12T23:59:17.882Z,96632.00
